sensor_id;sensor_type;location;lat;lon;timestamp;P1;durP1;ratioP1;P2;durP2;ratioP2
28003;SDS011;15330;51.234;6.754;2022-09-09T00:04:24;7.70;;;2.40;;
28003;SDS011;15330;51.234;6.754;2022-09-09T00:06:45;2.55;;;1.50;;
28003;SDS011;15330;51.234;6.754;2022-09-09T00:09:16;2.58;;;1.00;;
28003;SDS011;15330;51.234;6.754;2022-09-09T00:14:33;2.47;;;0.90;;
28003;SDS011;15330;51.234;6.754;2022-09-09T00:25:55;2.40;;;0.90;;
28003;SDS011;15330;51.234;6.754;2022-09-09T00:28:26;1.95;;;1.10;;
28003;SDS011;15330;51.234;6.754;2022-09-09T00:30:52;2.35;;;0.95;;
28003;SDS011;15330;51.234;6.754;2022-09-09T00:33:20;2.38;;;0.98;;
28003;SDS011;15330;51.234;6.754;2022-09-09T00:35:49;4.32;;;1.23;;
28003;SDS011;15330;51.234;6.754;2022-09-09T00:38:18;3.22;;;1.23;;
28003;SDS011;15330;51.234;6.754;2022-09-09T00:43:29;4.28;;;1.30;;
28003;SDS011;15330;51.234;6.754;2022-09-09T00:48:54;3.35;;;1.42;;
28003;SDS011;15330;51.234;6.754;2022-09-09T01:27:53;4.40;;;1.50;;
28003;SDS011;15330;51.234;6.754;2022-09-09T01:30:22;6.13;;;1.40;;
28003;SDS011;15330;51.234;6.754;2022-09-09T01:32:49;2.88;;;1.50;;
28003;SDS011;15330;51.234;6.754;2022-09-09T01:35:29;3.72;;;1.20;;
28003;SDS011;15330;51.234;6.754;2022-09-09T01:37:57;4.90;;;1.30;;
28003;SDS011;15330;51.234;6.754;2022-09-09T01:40:23;3.42;;;0.88;;
28003;SDS011;15330;51.234;6.754;2022-09-09T01:42:50;4.43;;;1.15;;
28003;SDS011;15330;51.234;6.754;2022-09-09T01:45:16;4.18;;;1.17;;
28003;SDS011;15330;51.234;6.754;2022-09-09T01:47:41;6.35;;;1.08;;
28003;SDS011;15330;51.234;6.754;2022-09-09T01:50:08;3.38;;;1.38;;
28003;SDS011;15330;51.234;6.754;2022-09-09T01:52:37;4.97;;;0.90;;
28003;SDS011;15330;51.234;6.754;2022-09-09T01:55:04;4.07;;;1.38;;
28003;SDS011;15330;51.234;6.754;2022-09-09T01:57:31;3.83;;;0.90;;
28003;SDS011;15330;51.234;6.754;2022-09-09T02:00:05;5.57;;;1.20;;
28003;SDS011;15330;51.234;6.754;2022-09-09T02:08:09;2.35;;;1.05;;
28003;SDS011;15330;51.234;6.754;2022-09-09T02:10:47;5.43;;;1.27;;
28003;SDS011;15330;51.234;6.754;2022-09-09T02:13:20;3.72;;;1.42;;
28003;SDS011;15330;51.234;6.754;2022-09-09T02:15:48;2.38;;;1.15;;
28003;SDS011;15330;51.234;6.754;2022-09-09T02:18:25;3.25;;;1.20;;
28003;SDS011;15330;51.234;6.754;2022-09-09T02:20:54;5.85;;;1.27;;
28003;SDS011;15330;51.234;6.754;2022-09-09T02:23:21;3.20;;;1.50;;
28003;SDS011;15330;51.234;6.754;2022-09-09T02:25:46;5.38;;;1.75;;
28003;SDS011;15330;51.234;6.754;2022-09-09T02:28:16;5.90;;;1.83;;
28003;SDS011;15330;51.234;6.754;2022-09-09T02:30:46;5.53;;;1.67;;
28003;SDS011;15330;51.234;6.754;2022-09-09T02:33:21;3.80;;;1.73;;
28003;SDS011;15330;51.234;6.754;2022-09-09T02:35:49;5.30;;;1.83;;
28003;SDS011;15330;51.234;6.754;2022-09-09T02:38:17;5.35;;;1.65;;
28003;SDS011;15330;51.234;6.754;2022-09-09T02:40:46;5.35;;;2.30;;
28003;SDS011;15330;51.234;6.754;2022-09-09T02:43:11;6.63;;;2.30;;
28003;SDS011;15330;51.234;6.754;2022-09-09T02:45:47;8.55;;;1.98;;
28003;SDS011;15330;51.234;6.754;2022-09-09T02:48:27;8.82;;;2.17;;
28003;SDS011;15330;51.234;6.754;2022-09-09T02:56:25;6.13;;;1.50;;
28003;SDS011;15330;51.234;6.754;2022-09-09T02:58:53;5.05;;;1.70;;
28003;SDS011;15330;51.234;6.754;2022-09-09T03:01:19;4.35;;;1.70;;
28003;SDS011;15330;51.234;6.754;2022-09-09T03:03:45;5.97;;;1.70;;
28003;SDS011;15330;51.234;6.754;2022-09-09T03:06:11;3.33;;;1.33;;
28003;SDS011;15330;51.234;6.754;2022-09-09T03:08:37;6.40;;;2.45;;
28003;SDS011;15330;51.234;6.754;2022-09-09T03:11:03;4.22;;;1.65;;
28003;SDS011;15330;51.234;6.754;2022-09-09T03:13:29;6.47;;;1.85;;
28003;SDS011;15330;51.234;6.754;2022-09-09T03:15:54;4.47;;;1.52;;
28003;SDS011;15330;51.234;6.754;2022-09-09T03:18:20;8.75;;;2.05;;
28003;SDS011;15330;51.234;6.754;2022-09-09T03:20:45;6.13;;;1.88;;
28003;SDS011;15330;51.234;6.754;2022-09-09T03:23:15;7.72;;;1.88;;
28003;SDS011;15330;51.234;6.754;2022-09-09T03:25:48;5.00;;;1.77;;
28003;SDS011;15330;51.234;6.754;2022-09-09T03:28:14;6.33;;;1.50;;
28003;SDS011;15330;51.234;6.754;2022-09-09T03:30:40;4.90;;;1.42;;
28003;SDS011;15330;51.234;6.754;2022-09-09T03:33:05;3.78;;;1.42;;
28003;SDS011;15330;51.234;6.754;2022-09-09T03:35:31;6.00;;;1.63;;
28003;SDS011;15330;51.234;6.754;2022-09-09T03:37:56;6.63;;;1.52;;
28003;SDS011;15330;51.234;6.754;2022-09-09T03:40:21;6.47;;;1.90;;
28003;SDS011;15330;51.234;6.754;2022-09-09T03:42:47;7.50;;;1.73;;
28003;SDS011;15330;51.234;6.754;2022-09-09T03:45:13;5.75;;;1.50;;
28003;SDS011;15330;51.234;6.754;2022-09-09T03:47:39;4.45;;;1.95;;
28003;SDS011;15330;51.234;6.754;2022-09-09T03:50:05;6.13;;;1.70;;
28003;SDS011;15330;51.234;6.754;2022-09-09T03:52:34;5.05;;;2.08;;
28003;SDS011;15330;51.234;6.754;2022-09-09T03:55:00;6.38;;;1.50;;
28003;SDS011;15330;51.234;6.754;2022-09-09T03:57:35;5.03;;;1.60;;
28003;SDS011;15330;51.234;6.754;2022-09-09T04:00:07;5.93;;;1.85;;
28003;SDS011;15330;51.234;6.754;2022-09-09T04:02:33;5.55;;;1.38;;
28003;SDS011;15330;51.234;6.754;2022-09-09T04:04:58;6.60;;;1.58;;
28003;SDS011;15330;51.234;6.754;2022-09-09T04:07:24;6.47;;;1.92;;
28003;SDS011;15330;51.234;6.754;2022-09-09T04:09:52;7.82;;;1.63;;
28003;SDS011;15330;51.234;6.754;2022-09-09T04:12:19;3.88;;;1.70;;
28003;SDS011;15330;51.234;6.754;2022-09-09T04:14:44;4.82;;;1.88;;
28003;SDS011;15330;51.234;6.754;2022-09-09T04:17:10;7.78;;;1.60;;
28003;SDS011;15330;51.234;6.754;2022-09-09T04:19:36;7.05;;;2.05;;
28003;SDS011;15330;51.234;6.754;2022-09-09T04:22:01;5.15;;;1.80;;
28003;SDS011;15330;51.234;6.754;2022-09-09T04:24:26;4.75;;;1.50;;
28003;SDS011;15330;51.234;6.754;2022-09-09T04:26:54;4.22;;;1.70;;
28003;SDS011;15330;51.234;6.754;2022-09-09T04:29:19;4.38;;;1.60;;
28003;SDS011;15330;51.234;6.754;2022-09-09T04:31:44;4.38;;;1.77;;
28003;SDS011;15330;51.234;6.754;2022-09-09T04:34:10;5.85;;;1.83;;
28003;SDS011;15330;51.234;6.754;2022-09-09T04:36:35;7.30;;;2.25;;
28003;SDS011;15330;51.234;6.754;2022-09-09T04:39:01;6.43;;;1.83;;
28003;SDS011;15330;51.234;6.754;2022-09-09T04:41:27;7.10;;;1.73;;
28003;SDS011;15330;51.234;6.754;2022-09-09T04:43:52;8.68;;;1.85;;
28003;SDS011;15330;51.234;6.754;2022-09-09T04:46:18;8.55;;;1.73;;
28003;SDS011;15330;51.234;6.754;2022-09-09T04:48:44;7.80;;;2.00;;
28003;SDS011;15330;51.234;6.754;2022-09-09T04:51:11;7.70;;;2.17;;
28003;SDS011;15330;51.234;6.754;2022-09-09T04:53:38;4.72;;;1.90;;
28003;SDS011;15330;51.234;6.754;2022-09-09T04:56:09;6.22;;;1.77;;
28003;SDS011;15330;51.234;6.754;2022-09-09T04:58:37;10.50;;;2.00;;
28003;SDS011;15330;51.234;6.754;2022-09-09T05:01:07;6.40;;;1.75;;
28003;SDS011;15330;51.234;6.754;2022-09-09T05:06:36;10.80;;;2.33;;
28003;SDS011;15330;51.234;6.754;2022-09-09T05:11:54;7.53;;;2.45;;
28003;SDS011;15330;51.234;6.754;2022-09-09T05:14:19;7.32;;;2.47;;
28003;SDS011;15330;51.234;6.754;2022-09-09T05:16:45;4.53;;;2.25;;
28003;SDS011;15330;51.234;6.754;2022-09-09T05:19:12;8.82;;;2.10;;
28003;SDS011;15330;51.234;6.754;2022-09-09T05:21:37;9.05;;;2.47;;
28003;SDS011;15330;51.234;6.754;2022-09-09T05:24:02;6.57;;;2.40;;
28003;SDS011;15330;51.234;6.754;2022-09-09T05:26:28;9.50;;;2.08;;
28003;SDS011;15330;51.234;6.754;2022-09-09T05:28:57;6.40;;;2.40;;
28003;SDS011;15330;51.234;6.754;2022-09-09T05:31:24;5.00;;;1.90;;
28003;SDS011;15330;51.234;6.754;2022-09-09T05:33:52;9.20;;;2.35;;
28003;SDS011;15330;51.234;6.754;2022-09-09T05:36:18;8.70;;;2.38;;
28003;SDS011;15330;51.234;6.754;2022-09-09T05:38:46;5.18;;;2.58;;
28003;SDS011;15330;51.234;6.754;2022-09-09T05:41:11;10.20;;;2.30;;
28003;SDS011;15330;51.234;6.754;2022-09-09T05:43:38;10.43;;;2.22;;
28003;SDS011;15330;51.234;6.754;2022-09-09T05:46:13;6.47;;;2.80;;
28003;SDS011;15330;51.234;6.754;2022-09-09T05:48:43;8.00;;;2.53;;
28003;SDS011;15330;51.234;6.754;2022-09-09T05:51:12;7.80;;;2.05;;
28003;SDS011;15330;51.234;6.754;2022-09-09T05:53:42;11.52;;;2.30;;
28003;SDS011;15330;51.234;6.754;2022-09-09T05:56:19;12.25;;;2.20;;
28003;SDS011;15330;51.234;6.754;2022-09-09T05:58:47;6.22;;;2.22;;
28003;SDS011;15330;51.234;6.754;2022-09-09T06:01:15;8.20;;;2.20;;
28003;SDS011;15330;51.234;6.754;2022-09-09T06:03:43;6.65;;;2.22;;
28003;SDS011;15330;51.234;6.754;2022-09-09T06:06:11;7.00;;;2.00;;
28003;SDS011;15330;51.234;6.754;2022-09-09T06:08:39;5.22;;;2.25;;
28003;SDS011;15330;51.234;6.754;2022-09-09T06:13:34;10.63;;;2.40;;
28003;SDS011;15330;51.234;6.754;2022-09-09T06:16:02;5.30;;;1.98;;
28003;SDS011;15330;51.234;6.754;2022-09-09T06:18:29;12.90;;;2.67;;
28003;SDS011;15330;51.234;6.754;2022-09-09T06:23:25;11.05;;;2.33;;
28003;SDS011;15330;51.234;6.754;2022-09-09T06:25:52;8.00;;;2.10;;
28003;SDS011;15330;51.234;6.754;2022-09-09T06:28:47;7.28;;;2.63;;
28003;SDS011;15330;51.234;6.754;2022-09-09T06:31:15;4.90;;;1.70;;
28003;SDS011;15330;51.234;6.754;2022-09-09T06:33:42;6.55;;;1.90;;
28003;SDS011;15330;51.234;6.754;2022-09-09T06:36:13;9.45;;;2.13;;
28003;SDS011;15330;51.234;6.754;2022-09-09T06:38:40;8.18;;;2.08;;
28003;SDS011;15330;51.234;6.754;2022-09-09T06:41:07;7.15;;;2.08;;
28003;SDS011;15330;51.234;6.754;2022-09-09T06:43:34;6.15;;;2.10;;
28003;SDS011;15330;51.234;6.754;2022-09-09T06:46:04;8.52;;;1.70;;
28003;SDS011;15330;51.234;6.754;2022-09-09T06:48:31;6.05;;;1.55;;
28003;SDS011;15330;51.234;6.754;2022-09-09T06:51:07;4.88;;;1.60;;
28003;SDS011;15330;51.234;6.754;2022-09-09T06:53:34;7.57;;;1.80;;
28003;SDS011;15330;51.234;6.754;2022-09-09T06:58:35;5.65;;;1.50;;
28003;SDS011;15330;51.234;6.754;2022-09-09T07:01:02;5.63;;;1.80;;
28003;SDS011;15330;51.234;6.754;2022-09-09T07:03:29;6.65;;;1.42;;
28003;SDS011;15330;51.234;6.754;2022-09-09T07:05:55;6.97;;;1.88;;
28003;SDS011;15330;51.234;6.754;2022-09-09T07:08:21;8.93;;;2.05;;
28003;SDS011;15330;51.234;6.754;2022-09-09T07:10:47;6.78;;;1.85;;
28003;SDS011;15330;51.234;6.754;2022-09-09T07:13:12;11.82;;;2.30;;
28003;SDS011;15330;51.234;6.754;2022-09-09T07:15:40;10.25;;;2.08;;
28003;SDS011;15330;51.234;6.754;2022-09-09T07:18:06;5.97;;;1.92;;
28003;SDS011;15330;51.234;6.754;2022-09-09T07:20:31;8.18;;;1.73;;
28003;SDS011;15330;51.234;6.754;2022-09-09T07:22:57;10.02;;;2.17;;
28003;SDS011;15330;51.234;6.754;2022-09-09T07:25:23;8.23;;;1.48;;
28003;SDS011;15330;51.234;6.754;2022-09-09T07:27:48;10.00;;;2.10;;
28003;SDS011;15330;51.234;6.754;2022-09-09T07:30:14;8.68;;;2.03;;
28003;SDS011;15330;51.234;6.754;2022-09-09T07:32:39;5.63;;;1.75;;
28003;SDS011;15330;51.234;6.754;2022-09-09T07:35:05;5.82;;;1.73;;
28003;SDS011;15330;51.234;6.754;2022-09-09T07:37:31;8.38;;;2.63;;
28003;SDS011;15330;51.234;6.754;2022-09-09T07:39:56;4.43;;;1.40;;
28003;SDS011;15330;51.234;6.754;2022-09-09T07:42:22;7.15;;;1.83;;
28003;SDS011;15330;51.234;6.754;2022-09-09T07:44:47;6.18;;;1.55;;
28003;SDS011;15330;51.234;6.754;2022-09-09T07:47:13;8.75;;;1.60;;
28003;SDS011;15330;51.234;6.754;2022-09-09T07:49:38;5.25;;;1.75;;
28003;SDS011;15330;51.234;6.754;2022-09-09T07:52:03;6.60;;;1.95;;
28003;SDS011;15330;51.234;6.754;2022-09-09T07:54:29;6.45;;;2.00;;
28003;SDS011;15330;51.234;6.754;2022-09-09T07:56:54;6.63;;;1.35;;
28003;SDS011;15330;51.234;6.754;2022-09-09T07:59:20;7.03;;;1.58;;
28003;SDS011;15330;51.234;6.754;2022-09-09T08:01:46;6.85;;;1.90;;
28003;SDS011;15330;51.234;6.754;2022-09-09T08:04:18;8.68;;;1.70;;
28003;SDS011;15330;51.234;6.754;2022-09-09T08:06:46;8.23;;;1.73;;
28003;SDS011;15330;51.234;6.754;2022-09-09T08:09:13;7.80;;;1.80;;
28003;SDS011;15330;51.234;6.754;2022-09-09T08:11:40;5.28;;;1.50;;
28003;SDS011;15330;51.234;6.754;2022-09-09T08:14:06;7.80;;;1.95;;
28003;SDS011;15330;51.234;6.754;2022-09-09T08:16:33;5.45;;;1.30;;
28003;SDS011;15330;51.234;6.754;2022-09-09T08:19:01;7.30;;;1.50;;
28003;SDS011;15330;51.234;6.754;2022-09-09T08:21:31;6.95;;;1.65;;
28003;SDS011;15330;51.234;6.754;2022-09-09T08:23:58;6.45;;;1.58;;
28003;SDS011;15330;51.234;6.754;2022-09-09T08:26:29;7.53;;;1.58;;
28003;SDS011;15330;51.234;6.754;2022-09-09T08:28:57;6.70;;;1.60;;
28003;SDS011;15330;51.234;6.754;2022-09-09T08:31:24;3.42;;;1.70;;
28003;SDS011;15330;51.234;6.754;2022-09-09T08:33:53;8.18;;;1.80;;
28003;SDS011;15330;51.234;6.754;2022-09-09T08:36:20;7.10;;;1.70;;
28003;SDS011;15330;51.234;6.754;2022-09-09T08:38:47;11.43;;;2.22;;
28003;SDS011;15330;51.234;6.754;2022-09-09T08:52:13;8.10;;;1.40;;
28003;SDS011;15330;51.234;6.754;2022-09-09T08:54:44;8.10;;;1.95;;
28003;SDS011;15330;51.234;6.754;2022-09-09T08:57:13;6.53;;;1.70;;
28003;SDS011;15330;51.234;6.754;2022-09-09T08:59:43;7.68;;;1.70;;
28003;SDS011;15330;51.234;6.754;2022-09-09T09:07:44;7.15;;;1.77;;
28003;SDS011;15330;51.234;6.754;2022-09-09T09:12:53;11.32;;;1.85;;
28003;SDS011;15330;51.234;6.754;2022-09-09T09:15:26;6.97;;;1.80;;
28003;SDS011;15330;51.234;6.754;2022-09-09T09:17:56;8.38;;;1.80;;
28003;SDS011;15330;51.234;6.754;2022-09-09T09:23:26;7.65;;;1.65;;
28003;SDS011;15330;51.234;6.754;2022-09-09T09:26:00;6.47;;;1.60;;
28003;SDS011;15330;51.234;6.754;2022-09-09T09:28:27;6.65;;;1.67;;
28003;SDS011;15330;51.234;6.754;2022-09-09T09:30:58;5.82;;;1.40;;
28003;SDS011;15330;51.234;6.754;2022-09-09T09:36:05;5.40;;;1.60;;
28003;SDS011;15330;51.234;6.754;2022-09-09T09:38:33;7.18;;;1.30;;
28003;SDS011;15330;51.234;6.754;2022-09-09T09:40:59;8.35;;;1.48;;
28003;SDS011;15330;51.234;6.754;2022-09-09T09:43:28;8.07;;;1.85;;
28003;SDS011;15330;51.234;6.754;2022-09-09T09:45:57;5.85;;;1.75;;
28003;SDS011;15330;51.234;6.754;2022-09-09T09:48:23;5.45;;;1.50;;
28003;SDS011;15330;51.234;6.754;2022-09-09T09:53:32;5.25;;;1.42;;
28003;SDS011;15330;51.234;6.754;2022-09-09T10:01:25;3.67;;;1.20;;
28003;SDS011;15330;51.234;6.754;2022-09-09T10:03:57;4.63;;;1.15;;
28003;SDS011;15330;51.234;6.754;2022-09-09T10:06:31;4.32;;;0.88;;
28003;SDS011;15330;51.234;6.754;2022-09-09T10:14:05;7.00;;;1.50;;
28003;SDS011;15330;51.234;6.754;2022-09-09T10:16:55;3.25;;;1.25;;
28003;SDS011;15330;51.234;6.754;2022-09-09T10:19:31;4.30;;;1.13;;
28003;SDS011;15330;51.234;6.754;2022-09-09T10:30:18;4.95;;;1.80;;
28003;SDS011;15330;51.234;6.754;2022-09-09T10:32:49;5.07;;;1.63;;
28003;SDS011;15330;51.234;6.754;2022-09-09T10:38:11;3.03;;;1.25;;
28003;SDS011;15330;51.234;6.754;2022-09-09T10:43:35;4.82;;;1.30;;
28003;SDS011;15330;51.234;6.754;2022-09-09T10:48:52;2.75;;;0.82;;
28003;SDS011;15330;51.234;6.754;2022-09-09T10:57:07;4.13;;;1.20;;
28003;SDS011;15330;51.234;6.754;2022-09-09T10:59:40;3.13;;;1.05;;
28003;SDS011;15330;51.234;6.754;2022-09-09T11:02:25;3.35;;;1.13;;
28003;SDS011;15330;51.234;6.754;2022-09-09T11:13:09;6.43;;;1.23;;
28003;SDS011;15330;51.234;6.754;2022-09-09T11:15:49;2.67;;;1.17;;
28003;SDS011;15330;51.234;6.754;2022-09-09T11:18:20;6.35;;;1.15;;
28003;SDS011;15330;51.234;6.754;2022-09-09T11:20:48;6.32;;;1.23;;
28003;SDS011;15330;51.234;6.754;2022-09-09T11:24:02;2.88;;;0.90;;
28003;SDS011;15330;51.234;6.754;2022-09-09T11:26:12;4.63;;;1.20;;
28003;SDS011;15330;51.234;6.754;2022-09-09T11:28:51;2.13;;;0.90;;
28003;SDS011;15330;51.234;6.754;2022-09-09T11:31:32;7.18;;;1.58;;
28003;SDS011;15330;51.234;6.754;2022-09-09T11:34:21;3.75;;;1.00;;
28003;SDS011;15330;51.234;6.754;2022-09-09T11:42:25;3.15;;;1.13;;
28003;SDS011;15330;51.234;6.754;2022-09-09T11:44:51;1.92;;;0.85;;
28003;SDS011;15330;51.234;6.754;2022-09-09T11:47:26;3.17;;;1.00;;
28003;SDS011;15330;51.234;6.754;2022-09-09T11:52:41;3.92;;;1.02;;
28003;SDS011;15330;51.234;6.754;2022-09-09T11:55:11;5.70;;;1.15;;
28003;SDS011;15330;51.234;6.754;2022-09-09T11:57:57;9.30;;;1.52;;
28003;SDS011;15330;51.234;6.754;2022-09-09T12:03:09;4.70;;;1.27;;
28003;SDS011;15330;51.234;6.754;2022-09-09T12:08:57;2.83;;;1.00;;
28003;SDS011;15330;51.234;6.754;2022-09-09T12:11:31;3.30;;;1.00;;
28003;SDS011;15330;51.234;6.754;2022-09-09T12:13:57;3.63;;;1.20;;
28003;SDS011;15330;51.234;6.754;2022-09-09T12:16:31;6.05;;;1.67;;
28003;SDS011;15330;51.234;6.754;2022-09-09T12:24:11;3.67;;;1.38;;
28003;SDS011;15330;51.234;6.754;2022-09-09T12:26:47;5.00;;;1.40;;
28003;SDS011;15330;51.234;6.754;2022-09-09T12:29:25;4.95;;;1.30;;
28003;SDS011;15330;51.234;6.754;2022-09-09T12:32:00;4.38;;;1.20;;
28003;SDS011;15330;51.234;6.754;2022-09-09T12:39:56;4.57;;;1.00;;
28003;SDS011;15330;51.234;6.754;2022-09-09T12:42:28;2.35;;;0.85;;
28003;SDS011;15330;51.234;6.754;2022-09-09T12:44:58;4.68;;;0.90;;
28003;SDS011;15330;51.234;6.754;2022-09-09T12:47:41;6.85;;;1.00;;
28003;SDS011;15330;51.234;6.754;2022-09-09T12:50:22;3.78;;;1.10;;
28003;SDS011;15330;51.234;6.754;2022-09-09T12:52:54;3.47;;;1.40;;
28003;SDS011;15330;51.234;6.754;2022-09-09T12:55:32;4.25;;;1.30;;
28003;SDS011;15330;51.234;6.754;2022-09-09T12:58:01;8.48;;;1.15;;
28003;SDS011;15330;51.234;6.754;2022-09-09T13:00:31;7.30;;;1.13;;
28003;SDS011;15330;51.234;6.754;2022-09-09T13:02:59;3.63;;;0.80;;
28003;SDS011;15330;51.234;6.754;2022-09-09T13:05:39;9.00;;;1.27;;
28003;SDS011;15330;51.234;6.754;2022-09-09T13:08:05;3.17;;;0.95;;
28003;SDS011;15330;51.234;6.754;2022-09-09T13:10:57;5.80;;;1.25;;
28003;SDS011;15330;51.234;6.754;2022-09-09T13:13:27;6.40;;;1.30;;
28003;SDS011;15330;51.234;6.754;2022-09-09T13:15:59;3.97;;;1.08;;
28003;SDS011;15330;51.234;6.754;2022-09-09T13:18:27;3.05;;;1.10;;
28003;SDS011;15330;51.234;6.754;2022-09-09T13:20:56;6.68;;;1.30;;
28003;SDS011;15330;51.234;6.754;2022-09-09T13:23:26;7.07;;;1.40;;
28003;SDS011;15330;51.234;6.754;2022-09-09T13:26:04;7.07;;;1.30;;
28003;SDS011;15330;51.234;6.754;2022-09-09T13:28:32;6.50;;;1.17;;
28003;SDS011;15330;51.234;6.754;2022-09-09T13:31:05;3.63;;;1.30;;
28003;SDS011;15330;51.234;6.754;2022-09-09T13:33:45;4.53;;;1.10;;
28003;SDS011;15330;51.234;6.754;2022-09-09T13:36:11;7.28;;;2.75;;
28003;SDS011;15330;51.234;6.754;2022-09-09T13:39:01;6.68;;;1.40;;
28003;SDS011;15330;51.234;6.754;2022-09-09T13:41:36;5.05;;;0.90;;
28003;SDS011;15330;51.234;6.754;2022-09-09T13:44:14;5.57;;;1.10;;
28003;SDS011;15330;51.234;6.754;2022-09-09T13:46:44;3.50;;;1.30;;
28003;SDS011;15330;51.234;6.754;2022-09-09T13:54:05;2.30;;;0.85;;
28003;SDS011;15330;51.234;6.754;2022-09-09T13:56:33;4.85;;;1.15;;
28003;SDS011;15330;51.234;6.754;2022-09-09T13:59:00;5.15;;;1.77;;
28003;SDS011;15330;51.234;6.754;2022-09-09T14:01:26;10.00;;;2.55;;
28003;SDS011;15330;51.234;6.754;2022-09-09T14:03:52;6.18;;;1.30;;
28003;SDS011;15330;51.234;6.754;2022-09-09T14:06:18;7.90;;;1.67;;
28003;SDS011;15330;51.234;6.754;2022-09-09T14:08:43;7.57;;;1.20;;
28003;SDS011;15330;51.234;6.754;2022-09-09T14:11:11;5.80;;;1.70;;
28003;SDS011;15330;51.234;6.754;2022-09-09T14:13:37;5.22;;;1.02;;
28003;SDS011;15330;51.234;6.754;2022-09-09T14:16:03;4.78;;;1.23;;
28003;SDS011;15330;51.234;6.754;2022-09-09T14:18:28;2.85;;;1.38;;
28003;SDS011;15330;51.234;6.754;2022-09-09T14:20:54;4.95;;;1.30;;
28003;SDS011;15330;51.234;6.754;2022-09-09T14:23:19;5.80;;;1.30;;
28003;SDS011;15330;51.234;6.754;2022-09-09T14:25:46;2.50;;;1.00;;
28003;SDS011;15330;51.234;6.754;2022-09-09T14:28:12;6.03;;;1.60;;
28003;SDS011;15330;51.234;6.754;2022-09-09T14:30:39;6.55;;;1.35;;
28003;SDS011;15330;51.234;6.754;2022-09-09T14:33:08;2.13;;;0.65;;
28003;SDS011;15330;51.234;6.754;2022-09-09T14:35:34;1.48;;;0.50;;
28003;SDS011;15330;51.234;6.754;2022-09-09T14:38:01;1.98;;;0.35;;
28003;SDS011;15330;51.234;6.754;2022-09-09T14:40:27;0.40;;;0.30;;
28003;SDS011;15330;51.234;6.754;2022-09-09T14:42:53;0.65;;;0.30;;
28003;SDS011;15330;51.234;6.754;2022-09-09T14:45:18;1.25;;;0.40;;
28003;SDS011;15330;51.234;6.754;2022-09-09T14:47:46;0.85;;;0.40;;
28003;SDS011;15330;51.234;6.754;2022-09-09T14:50:11;0.68;;;0.30;;
28003;SDS011;15330;51.234;6.754;2022-09-09T14:52:37;2.50;;;0.60;;
28003;SDS011;15330;51.234;6.754;2022-09-09T14:55:03;2.78;;;0.50;;
28003;SDS011;15330;51.234;6.754;2022-09-09T14:57:29;1.55;;;0.45;;
28003;SDS011;15330;51.234;6.754;2022-09-09T14:59:54;1.05;;;0.30;;
28003;SDS011;15330;51.234;6.754;2022-09-09T15:02:19;0.85;;;0.43;;
28003;SDS011;15330;51.234;6.754;2022-09-09T15:04:44;2.33;;;0.70;;
28003;SDS011;15330;51.234;6.754;2022-09-09T15:07:10;0.60;;;0.50;;
28003;SDS011;15330;51.234;6.754;2022-09-09T15:09:36;4.10;;;0.60;;
28003;SDS011;15330;51.234;6.754;2022-09-09T15:12:02;2.28;;;0.45;;
28003;SDS011;15330;51.234;6.754;2022-09-09T15:14:27;3.38;;;1.20;;
28003;SDS011;15330;51.234;6.754;2022-09-09T15:16:53;3.83;;;0.70;;
28003;SDS011;15330;51.234;6.754;2022-09-09T15:19:18;2.97;;;0.75;;
28003;SDS011;15330;51.234;6.754;2022-09-09T15:21:43;4.18;;;1.10;;
28003;SDS011;15330;51.234;6.754;2022-09-09T15:24:09;2.42;;;1.27;;
28003;SDS011;15330;51.234;6.754;2022-09-09T15:26:35;1.65;;;0.90;;
28003;SDS011;15330;51.234;6.754;2022-09-09T15:29:03;5.20;;;1.17;;
28003;SDS011;15330;51.234;6.754;2022-09-09T15:31:29;2.75;;;0.70;;
28003;SDS011;15330;51.234;6.754;2022-09-09T15:34:00;2.03;;;0.82;;
28003;SDS011;15330;51.234;6.754;2022-09-09T15:36:28;3.55;;;0.90;;
28003;SDS011;15330;51.234;6.754;2022-09-09T15:39:00;2.63;;;1.13;;
28003;SDS011;15330;51.234;6.754;2022-09-09T15:41:26;3.20;;;1.27;;
28003;SDS011;15330;51.234;6.754;2022-09-09T15:43:53;3.10;;;1.05;;
28003;SDS011;15330;51.234;6.754;2022-09-09T15:46:31;2.65;;;1.10;;
28003;SDS011;15330;51.234;6.754;2022-09-09T15:51:40;2.08;;;1.05;;
28003;SDS011;15330;51.234;6.754;2022-09-09T15:54:07;2.25;;;1.30;;
28003;SDS011;15330;51.234;6.754;2022-09-09T15:56:34;3.35;;;1.30;;
28003;SDS011;15330;51.234;6.754;2022-09-09T15:58:59;4.63;;;1.40;;
28003;SDS011;15330;51.234;6.754;2022-09-09T16:01:27;4.20;;;1.65;;
28003;SDS011;15330;51.234;6.754;2022-09-09T16:03:53;6.40;;;1.60;;
28003;SDS011;15330;51.234;6.754;2022-09-09T16:06:22;4.38;;;1.40;;
28003;SDS011;15330;51.234;6.754;2022-09-09T16:08:50;6.82;;;1.65;;
28003;SDS011;15330;51.234;6.754;2022-09-09T16:11:19;4.13;;;1.80;;
28003;SDS011;15330;51.234;6.754;2022-09-09T16:13:45;4.55;;;1.73;;
28003;SDS011;15330;51.234;6.754;2022-09-09T16:16:12;5.32;;;2.20;;
28003;SDS011;15330;51.234;6.754;2022-09-09T16:18:41;6.05;;;2.30;;
28003;SDS011;15330;51.234;6.754;2022-09-09T16:21:13;7.53;;;2.47;;
28003;SDS011;15330;51.234;6.754;2022-09-09T16:23:43;7.40;;;2.63;;
28003;SDS011;15330;51.234;6.754;2022-09-09T16:26:13;8.68;;;2.95;;
28003;SDS011;15330;51.234;6.754;2022-09-09T16:28:41;8.55;;;3.40;;
28003;SDS011;15330;51.234;6.754;2022-09-09T16:31:07;6.03;;;3.22;;
28003;SDS011;15330;51.234;6.754;2022-09-09T16:33:35;6.72;;;2.55;;
28003;SDS011;15330;51.234;6.754;2022-09-09T16:36:11;6.00;;;2.95;;
28003;SDS011;15330;51.234;6.754;2022-09-09T16:38:39;8.35;;;3.47;;
28003;SDS011;15330;51.234;6.754;2022-09-09T16:41:05;11.45;;;4.78;;
28003;SDS011;15330;51.234;6.754;2022-09-09T16:43:34;5.97;;;2.85;;
28003;SDS011;15330;51.234;6.754;2022-09-09T16:46:03;7.03;;;3.30;;
28003;SDS011;15330;51.234;6.754;2022-09-09T16:48:41;5.47;;;3.35;;
28003;SDS011;15330;51.234;6.754;2022-09-09T16:51:09;5.03;;;3.00;;
28003;SDS011;15330;51.234;6.754;2022-09-09T16:53:39;6.00;;;2.50;;
28003;SDS011;15330;51.234;6.754;2022-09-09T16:56:07;5.07;;;2.75;;
28003;SDS011;15330;51.234;6.754;2022-09-09T16:58:34;6.30;;;3.45;;
28003;SDS011;15330;51.234;6.754;2022-09-09T17:01:00;6.07;;;2.63;;
28003;SDS011;15330;51.234;6.754;2022-09-09T17:03:29;6.65;;;3.03;;
28003;SDS011;15330;51.234;6.754;2022-09-09T17:05:56;6.45;;;3.30;;
28003;SDS011;15330;51.234;6.754;2022-09-09T17:08:23;9.68;;;2.95;;
28003;SDS011;15330;51.234;6.754;2022-09-09T17:10:51;7.50;;;2.88;;
28003;SDS011;15330;51.234;6.754;2022-09-09T17:13:16;9.60;;;3.25;;
28003;SDS011;15330;51.234;6.754;2022-09-09T17:15:44;6.35;;;3.28;;
28003;SDS011;15330;51.234;6.754;2022-09-09T17:18:10;8.55;;;2.80;;
28003;SDS011;15330;51.234;6.754;2022-09-09T17:20:37;7.50;;;2.78;;
28003;SDS011;15330;51.234;6.754;2022-09-09T17:23:10;12.70;;;2.90;;
28003;SDS011;15330;51.234;6.754;2022-09-09T17:25:36;5.80;;;3.58;;
28003;SDS011;15330;51.234;6.754;2022-09-09T17:28:03;7.03;;;3.00;;
28003;SDS011;15330;51.234;6.754;2022-09-09T17:30:29;8.38;;;3.38;;
28003;SDS011;15330;51.234;6.754;2022-09-09T17:32:56;14.18;;;7.97;;
28003;SDS011;15330;51.234;6.754;2022-09-09T17:35:22;12.93;;;3.72;;
28003;SDS011;15330;51.234;6.754;2022-09-09T17:37:48;7.13;;;2.80;;
28003;SDS011;15330;51.234;6.754;2022-09-09T17:40:13;6.75;;;2.50;;
28003;SDS011;15330;51.234;6.754;2022-09-09T17:42:39;5.50;;;2.75;;
28003;SDS011;15330;51.234;6.754;2022-09-09T17:45:05;6.78;;;2.47;;
28003;SDS011;15330;51.234;6.754;2022-09-09T17:47:31;6.53;;;2.47;;
28003;SDS011;15330;51.234;6.754;2022-09-09T17:49:57;7.43;;;2.50;;
28003;SDS011;15330;51.234;6.754;2022-09-09T17:52:22;5.55;;;2.55;;
28003;SDS011;15330;51.234;6.754;2022-09-09T17:54:48;5.00;;;2.28;;
28003;SDS011;15330;51.234;6.754;2022-09-09T17:57:14;5.53;;;2.05;;
28003;SDS011;15330;51.234;6.754;2022-09-09T17:59:42;6.88;;;2.40;;